sensor_id;sensor_type;location;lat;lon;timestamp;P1;durP1;ratioP1;P2;durP2;ratioP2
64887;SDS011;51386;53.082;8.816;2023-12-28T00:00:43;1.90;;;1.70;;
64887;SDS011;51386;53.082;8.816;2023-12-28T00:03:12;8.90;;;2.17;;
64887;SDS011;51386;53.082;8.816;2023-12-28T00:05:40;4.37;;;2.10;;
64887;SDS011;51386;53.082;8.816;2023-12-28T00:08:09;2.60;;;1.97;;
64887;SDS011;51386;53.082;8.816;2023-12-28T00:10:37;5.33;;;2.07;;
64887;SDS011;51386;53.082;8.816;2023-12-28T00:13:05;4.37;;;2.20;;
64887;SDS011;51386;53.082;8.816;2023-12-28T00:15:34;2.70;;;1.73;;
64887;SDS011;51386;53.082;8.816;2023-12-28T00:18:02;2.90;;;1.97;;
64887;SDS011;51386;53.082;8.816;2023-12-28T00:20:31;4.93;;;2.50;;
64887;SDS011;51386;53.082;8.816;2023-12-28T00:22:59;3.30;;;2.07;;
64887;SDS011;51386;53.082;8.816;2023-12-28T00:25:28;3.83;;;1.97;;
64887;SDS011;51386;53.082;8.816;2023-12-28T00:27:56;2.73;;;1.80;;
64887;SDS011;51386;53.082;8.816;2023-12-28T00:30:25;2.53;;;2.27;;
64887;SDS011;51386;53.082;8.816;2023-12-28T00:32:53;4.20;;;2.50;;
64887;SDS011;51386;53.082;8.816;2023-12-28T00:35:22;3.33;;;2.40;;
64887;SDS011;51386;53.082;8.816;2023-12-28T00:37:50;3.40;;;1.90;;
64887;SDS011;51386;53.082;8.816;2023-12-28T00:40:18;2.33;;;1.90;;
64887;SDS011;51386;53.082;8.816;2023-12-28T00:42:47;2.60;;;2.23;;
64887;SDS011;51386;53.082;8.816;2023-12-28T00:45:16;5.17;;;2.23;;
64887;SDS011;51386;53.082;8.816;2023-12-28T00:47:44;4.00;;;2.17;;
64887;SDS011;51386;53.082;8.816;2023-12-28T00:50:13;3.30;;;1.83;;
64887;SDS011;51386;53.082;8.816;2023-12-28T00:52:44;3.00;;;2.10;;
64887;SDS011;51386;53.082;8.816;2023-12-28T00:55:12;3.13;;;2.13;;
64887;SDS011;51386;53.082;8.816;2023-12-28T00:57:41;2.47;;;2.20;;
64887;SDS011;51386;53.082;8.816;2023-12-28T01:00:09;4.37;;;2.57;;
64887;SDS011;51386;53.082;8.816;2023-12-28T01:02:38;4.27;;;2.40;;
64887;SDS011;51386;53.082;8.816;2023-12-28T01:05:07;4.80;;;1.80;;
64887;SDS011;51386;53.082;8.816;2023-12-28T01:07:35;3.93;;;2.20;;
64887;SDS011;51386;53.082;8.816;2023-12-28T01:10:04;3.17;;;2.67;;
64887;SDS011;51386;53.082;8.816;2023-12-28T01:12:33;4.93;;;2.20;;
64887;SDS011;51386;53.082;8.816;2023-12-28T01:15:01;4.00;;;2.57;;
64887;SDS011;51386;53.082;8.816;2023-12-28T01:17:30;2.90;;;2.10;;
64887;SDS011;51386;53.082;8.816;2023-12-28T01:19:59;2.73;;;2.10;;
64887;SDS011;51386;53.082;8.816;2023-12-28T01:22:27;2.33;;;2.03;;
64887;SDS011;51386;53.082;8.816;2023-12-28T01:24:56;2.90;;;2.20;;
64887;SDS011;51386;53.082;8.816;2023-12-28T01:27:24;3.80;;;2.40;;
64887;SDS011;51386;53.082;8.816;2023-12-28T01:29:53;3.93;;;2.00;;
64887;SDS011;51386;53.082;8.816;2023-12-28T01:32:21;5.20;;;2.50;;
64887;SDS011;51386;53.082;8.816;2023-12-28T01:34:49;3.47;;;2.17;;
64887;SDS011;51386;53.082;8.816;2023-12-28T01:37:18;2.63;;;2.17;;
64887;SDS011;51386;53.082;8.816;2023-12-28T01:39:46;5.43;;;2.57;;
64887;SDS011;51386;53.082;8.816;2023-12-28T01:42:15;2.97;;;2.00;;
64887;SDS011;51386;53.082;8.816;2023-12-28T01:44:43;2.30;;;2.10;;
64887;SDS011;51386;53.082;8.816;2023-12-28T01:47:12;4.97;;;1.90;;
64887;SDS011;51386;53.082;8.816;2023-12-28T01:49:40;4.40;;;2.50;;
64887;SDS011;51386;53.082;8.816;2023-12-28T01:52:09;2.67;;;2.20;;
64887;SDS011;51386;53.082;8.816;2023-12-28T01:54:38;2.97;;;2.13;;
64887;SDS011;51386;53.082;8.816;2023-12-28T01:57:07;6.30;;;2.67;;
64887;SDS011;51386;53.082;8.816;2023-12-28T01:59:36;3.23;;;2.40;;
64887;SDS011;51386;53.082;8.816;2023-12-28T02:02:04;2.67;;;2.47;;
64887;SDS011;51386;53.082;8.816;2023-12-28T02:04:34;4.03;;;2.70;;
64887;SDS011;51386;53.082;8.816;2023-12-28T02:07:03;4.80;;;2.87;;
64887;SDS011;51386;53.082;8.816;2023-12-28T02:09:33;6.53;;;2.30;;
64887;SDS011;51386;53.082;8.816;2023-12-28T02:12:02;2.93;;;2.20;;
64887;SDS011;51386;53.082;8.816;2023-12-28T02:14:31;2.47;;;2.27;;
64887;SDS011;51386;53.082;8.816;2023-12-28T02:20:10;3.87;;;2.43;;
64887;SDS011;51386;53.082;8.816;2023-12-28T02:22:40;4.43;;;2.70;;
64887;SDS011;51386;53.082;8.816;2023-12-28T02:25:12;5.13;;;2.87;;
64887;SDS011;51386;53.082;8.816;2023-12-28T02:27:44;6.00;;;2.60;;
64887;SDS011;51386;53.082;8.816;2023-12-28T02:30:16;4.10;;;2.30;;
64887;SDS011;51386;53.082;8.816;2023-12-28T02:32:54;6.00;;;2.83;;
64887;SDS011;51386;53.082;8.816;2023-12-28T02:35:52;6.27;;;3.10;;
64887;SDS011;51386;53.082;8.816;2023-12-28T02:38:27;2.73;;;2.50;;
64887;SDS011;51386;53.082;8.816;2023-12-28T02:40:58;3.47;;;2.57;;
64887;SDS011;51386;53.082;8.816;2023-12-28T02:43:28;3.37;;;2.40;;
64887;SDS011;51386;53.082;8.816;2023-12-28T02:45:56;2.93;;;2.50;;
64887;SDS011;51386;53.082;8.816;2023-12-28T02:48:25;4.53;;;2.60;;
64887;SDS011;51386;53.082;8.816;2023-12-28T02:50:53;5.37;;;3.20;;
64887;SDS011;51386;53.082;8.816;2023-12-28T02:53:22;3.70;;;2.83;;
64887;SDS011;51386;53.082;8.816;2023-12-28T02:55:50;4.07;;;2.60;;
64887;SDS011;51386;53.082;8.816;2023-12-28T02:58:18;6.07;;;3.07;;
64887;SDS011;51386;53.082;8.816;2023-12-28T03:00:47;3.47;;;2.50;;
64887;SDS011;51386;53.082;8.816;2023-12-28T03:03:16;4.53;;;2.33;;
64887;SDS011;51386;53.082;8.816;2023-12-28T03:05:45;3.53;;;2.40;;
64887;SDS011;51386;53.082;8.816;2023-12-28T03:08:13;6.43;;;2.80;;
64887;SDS011;51386;53.082;8.816;2023-12-28T03:10:42;4.27;;;2.90;;
64887;SDS011;51386;53.082;8.816;2023-12-28T03:13:10;4.67;;;3.07;;
64887;SDS011;51386;53.082;8.816;2023-12-28T03:15:39;5.10;;;2.60;;
64887;SDS011;51386;53.082;8.816;2023-12-28T03:18:07;3.93;;;2.50;;
64887;SDS011;51386;53.082;8.816;2023-12-28T03:20:36;4.63;;;2.50;;
64887;SDS011;51386;53.082;8.816;2023-12-28T03:23:04;4.13;;;2.53;;
64887;SDS011;51386;53.082;8.816;2023-12-28T03:25:33;4.90;;;2.53;;
64887;SDS011;51386;53.082;8.816;2023-12-28T03:28:01;3.20;;;2.43;;
64887;SDS011;51386;53.082;8.816;2023-12-28T03:30:30;5.30;;;2.77;;
64887;SDS011;51386;53.082;8.816;2023-12-28T03:32:58;4.40;;;2.43;;
64887;SDS011;51386;53.082;8.816;2023-12-28T03:35:26;4.07;;;2.90;;
64887;SDS011;51386;53.082;8.816;2023-12-28T03:37:55;4.57;;;2.30;;
64887;SDS011;51386;53.082;8.816;2023-12-28T03:40:24;4.97;;;2.20;;
64887;SDS011;51386;53.082;8.816;2023-12-28T03:42:52;3.83;;;2.20;;
64887;SDS011;51386;53.082;8.816;2023-12-28T03:45:20;2.50;;;2.23;;
64887;SDS011;51386;53.082;8.816;2023-12-28T03:47:49;3.33;;;3.03;;
64887;SDS011;51386;53.082;8.816;2023-12-28T03:50:18;5.13;;;2.50;;
64887;SDS011;51386;53.082;8.816;2023-12-28T03:52:47;2.73;;;2.30;;
64887;SDS011;51386;53.082;8.816;2023-12-28T03:55:15;6.13;;;2.93;;
64887;SDS011;51386;53.082;8.816;2023-12-28T03:57:44;4.77;;;2.83;;
64887;SDS011;51386;53.082;8.816;2023-12-28T04:00:14;6.57;;;2.70;;
64887;SDS011;51386;53.082;8.816;2023-12-28T04:02:44;5.47;;;2.80;;
64887;SDS011;51386;53.082;8.816;2023-12-28T04:05:14;3.47;;;2.97;;
64887;SDS011;51386;53.082;8.816;2023-12-28T04:07:43;5.80;;;2.63;;
64887;SDS011;51386;53.082;8.816;2023-12-28T04:10:11;4.17;;;3.00;;
64887;SDS011;51386;53.082;8.816;2023-12-28T04:12:40;6.07;;;2.77;;
64887;SDS011;51386;53.082;8.816;2023-12-28T04:15:08;6.30;;;2.83;;
64887;SDS011;51386;53.082;8.816;2023-12-28T04:17:36;3.53;;;2.37;;
64887;SDS011;51386;53.082;8.816;2023-12-28T04:20:06;3.40;;;2.50;;
64887;SDS011;51386;53.082;8.816;2023-12-28T04:22:35;4.60;;;2.50;;
64887;SDS011;51386;53.082;8.816;2023-12-28T04:25:03;6.37;;;3.30;;
64887;SDS011;51386;53.082;8.816;2023-12-28T04:27:32;7.70;;;3.20;;
64887;SDS011;51386;53.082;8.816;2023-12-28T04:30:00;2.63;;;2.43;;
64887;SDS011;51386;53.082;8.816;2023-12-28T04:32:29;3.90;;;2.70;;
64887;SDS011;51386;53.082;8.816;2023-12-28T04:34:57;2.93;;;2.57;;
64887;SDS011;51386;53.082;8.816;2023-12-28T04:37:26;3.80;;;2.90;;
64887;SDS011;51386;53.082;8.816;2023-12-28T04:39:54;2.97;;;2.60;;
64887;SDS011;51386;53.082;8.816;2023-12-28T04:42:23;5.13;;;2.80;;
64887;SDS011;51386;53.082;8.816;2023-12-28T04:44:51;5.83;;;2.90;;
64887;SDS011;51386;53.082;8.816;2023-12-28T04:47:20;4.20;;;2.80;;
64887;SDS011;51386;53.082;8.816;2023-12-28T04:49:48;3.90;;;3.13;;
64887;SDS011;51386;53.082;8.816;2023-12-28T04:52:17;5.73;;;3.03;;
64887;SDS011;51386;53.082;8.816;2023-12-28T04:54:45;4.73;;;2.97;;
64887;SDS011;51386;53.082;8.816;2023-12-28T04:57:13;4.77;;;3.10;;
64887;SDS011;51386;53.082;8.816;2023-12-28T04:59:42;3.03;;;2.60;;
64887;SDS011;51386;53.082;8.816;2023-12-28T05:02:10;5.00;;;2.77;;
64887;SDS011;51386;53.082;8.816;2023-12-28T05:04:39;3.73;;;3.13;;
64887;SDS011;51386;53.082;8.816;2023-12-28T05:07:07;3.70;;;2.90;;
64887;SDS011;51386;53.082;8.816;2023-12-28T05:09:36;3.57;;;2.70;;
64887;SDS011;51386;53.082;8.816;2023-12-28T05:12:04;3.73;;;2.83;;
64887;SDS011;51386;53.082;8.816;2023-12-28T05:14:33;4.37;;;2.70;;
64887;SDS011;51386;53.082;8.816;2023-12-28T05:17:01;6.77;;;3.60;;
64887;SDS011;51386;53.082;8.816;2023-12-28T05:19:30;4.53;;;3.17;;
64887;SDS011;51386;53.082;8.816;2023-12-28T05:21:58;3.00;;;2.60;;
64887;SDS011;51386;53.082;8.816;2023-12-28T05:24:31;4.87;;;2.60;;
64887;SDS011;51386;53.082;8.816;2023-12-28T05:27:00;6.50;;;2.83;;
64887;SDS011;51386;53.082;8.816;2023-12-28T05:29:28;4.23;;;2.80;;
64887;SDS011;51386;53.082;8.816;2023-12-28T05:31:57;5.07;;;2.63;;
64887;SDS011;51386;53.082;8.816;2023-12-28T05:34:25;4.63;;;3.00;;
64887;SDS011;51386;53.082;8.816;2023-12-28T05:36:54;3.43;;;3.00;;
64887;SDS011;51386;53.082;8.816;2023-12-28T05:39:22;5.00;;;3.13;;
64887;SDS011;51386;53.082;8.816;2023-12-28T05:41:51;5.53;;;3.50;;
64887;SDS011;51386;53.082;8.816;2023-12-28T05:44:19;6.17;;;3.33;;
64887;SDS011;51386;53.082;8.816;2023-12-28T05:46:48;7.40;;;2.90;;
64887;SDS011;51386;53.082;8.816;2023-12-28T05:49:16;5.37;;;2.87;;
64887;SDS011;51386;53.082;8.816;2023-12-28T05:51:45;5.23;;;3.00;;
64887;SDS011;51386;53.082;8.816;2023-12-28T05:54:13;3.33;;;2.73;;
64887;SDS011;51386;53.082;8.816;2023-12-28T05:56:42;4.47;;;3.10;;
64887;SDS011;51386;53.082;8.816;2023-12-28T05:59:10;5.27;;;2.87;;
64887;SDS011;51386;53.082;8.816;2023-12-28T06:01:42;2.83;;;2.40;;
64887;SDS011;51386;53.082;8.816;2023-12-28T06:04:11;5.20;;;3.10;;
64887;SDS011;51386;53.082;8.816;2023-12-28T06:06:40;6.13;;;2.90;;
64887;SDS011;51386;53.082;8.816;2023-12-28T06:09:08;4.30;;;2.70;;
64887;SDS011;51386;53.082;8.816;2023-12-28T06:11:37;5.23;;;2.70;;
64887;SDS011;51386;53.082;8.816;2023-12-28T06:14:05;6.50;;;3.53;;
64887;SDS011;51386;53.082;8.816;2023-12-28T06:16:34;4.87;;;2.87;;
64887;SDS011;51386;53.082;8.816;2023-12-28T06:19:03;3.93;;;2.23;;
64887;SDS011;51386;53.082;8.816;2023-12-28T06:21:31;4.13;;;2.40;;
64887;SDS011;51386;53.082;8.816;2023-12-28T06:24:00;3.73;;;2.30;;
64887;SDS011;51386;53.082;8.816;2023-12-28T06:26:28;5.13;;;2.50;;
64887;SDS011;51386;53.082;8.816;2023-12-28T06:28:57;4.50;;;2.67;;
64887;SDS011;51386;53.082;8.816;2023-12-28T06:31:25;4.87;;;2.97;;
64887;SDS011;51386;53.082;8.816;2023-12-28T06:33:54;7.87;;;2.67;;
64887;SDS011;51386;53.082;8.816;2023-12-28T06:36:22;6.00;;;2.20;;
64887;SDS011;51386;53.082;8.816;2023-12-28T06:38:51;6.37;;;3.20;;
64887;SDS011;51386;53.082;8.816;2023-12-28T06:41:19;4.23;;;2.43;;
64887;SDS011;51386;53.082;8.816;2023-12-28T06:43:47;4.90;;;2.40;;
64887;SDS011;51386;53.082;8.816;2023-12-28T06:46:16;5.20;;;2.53;;
64887;SDS011;51386;53.082;8.816;2023-12-28T06:48:45;4.00;;;2.73;;
64887;SDS011;51386;53.082;8.816;2023-12-28T06:51:20;5.67;;;2.80;;
64887;SDS011;51386;53.082;8.816;2023-12-28T06:53:49;7.73;;;2.50;;
64887;SDS011;51386;53.082;8.816;2023-12-28T06:56:18;4.10;;;2.63;;
64887;SDS011;51386;53.082;8.816;2023-12-28T06:58:46;6.47;;;2.70;;
64887;SDS011;51386;53.082;8.816;2023-12-28T07:01:14;9.40;;;2.70;;
64887;SDS011;51386;53.082;8.816;2023-12-28T07:03:43;6.40;;;3.07;;
64887;SDS011;51386;53.082;8.816;2023-12-28T07:06:13;5.93;;;2.73;;
64887;SDS011;51386;53.082;8.816;2023-12-28T07:08:42;5.30;;;2.73;;
64887;SDS011;51386;53.082;8.816;2023-12-28T07:11:10;9.63;;;2.90;;
64887;SDS011;51386;53.082;8.816;2023-12-28T07:13:39;6.33;;;2.40;;
64887;SDS011;51386;53.082;8.816;2023-12-28T07:16:07;5.40;;;2.73;;
64887;SDS011;51386;53.082;8.816;2023-12-28T07:18:36;10.77;;;3.43;;
64887;SDS011;51386;53.082;8.816;2023-12-28T07:21:04;7.80;;;2.77;;
64887;SDS011;51386;53.082;8.816;2023-12-28T07:23:39;6.70;;;3.00;;
64887;SDS011;51386;53.082;8.816;2023-12-28T07:26:07;3.73;;;2.33;;
64887;SDS011;51386;53.082;8.816;2023-12-28T07:28:35;6.47;;;2.77;;
64887;SDS011;51386;53.082;8.816;2023-12-28T07:31:04;7.80;;;2.80;;
64887;SDS011;51386;53.082;8.816;2023-12-28T07:33:32;7.83;;;2.77;;
64887;SDS011;51386;53.082;8.816;2023-12-28T07:36:00;6.57;;;2.33;;
64887;SDS011;51386;53.082;8.816;2023-12-28T07:38:33;10.10;;;2.83;;
64887;SDS011;51386;53.082;8.816;2023-12-28T07:41:02;9.30;;;2.83;;
64887;SDS011;51386;53.082;8.816;2023-12-28T07:43:30;10.67;;;2.50;;
64887;SDS011;51386;53.082;8.816;2023-12-28T07:45:59;4.70;;;2.70;;
64887;SDS011;51386;53.082;8.816;2023-12-28T07:48:27;5.17;;;2.90;;
64887;SDS011;51386;53.082;8.816;2023-12-28T07:50:58;4.23;;;2.20;;
64887;SDS011;51386;53.082;8.816;2023-12-28T07:53:26;9.00;;;2.87;;
64887;SDS011;51386;53.082;8.816;2023-12-28T07:55:55;8.57;;;2.97;;
64887;SDS011;51386;53.082;8.816;2023-12-28T07:58:24;8.43;;;3.27;;
64887;SDS011;51386;53.082;8.816;2023-12-28T08:00:52;7.10;;;1.97;;
64887;SDS011;51386;53.082;8.816;2023-12-28T08:03:21;5.17;;;2.20;;
64887;SDS011;51386;53.082;8.816;2023-12-28T08:05:49;9.67;;;2.67;;
64887;SDS011;51386;53.082;8.816;2023-12-28T08:08:18;7.83;;;3.10;;
64887;SDS011;51386;53.082;8.816;2023-12-28T08:10:46;7.33;;;2.60;;
64887;SDS011;51386;53.082;8.816;2023-12-28T08:13:14;8.23;;;2.70;;
64887;SDS011;51386;53.082;8.816;2023-12-28T08:15:47;8.33;;;2.33;;
64887;SDS011;51386;53.082;8.816;2023-12-28T08:18:15;10.07;;;1.87;;
64887;SDS011;51386;53.082;8.816;2023-12-28T08:20:44;7.90;;;2.40;;
64887;SDS011;51386;53.082;8.816;2023-12-28T08:23:12;11.27;;;3.73;;
64887;SDS011;51386;53.082;8.816;2023-12-28T08:25:44;7.57;;;2.53;;
64887;SDS011;51386;53.082;8.816;2023-12-28T08:28:13;12.27;;;2.80;;
64887;SDS011;51386;53.082;8.816;2023-12-28T08:30:41;9.10;;;2.83;;
64887;SDS011;51386;53.082;8.816;2023-12-28T08:33:10;13.03;;;3.60;;
64887;SDS011;51386;53.082;8.816;2023-12-28T08:35:38;7.67;;;2.47;;
64887;SDS011;51386;53.082;8.816;2023-12-28T08:38:07;7.60;;;3.00;;
64887;SDS011;51386;53.082;8.816;2023-12-28T08:40:36;9.27;;;2.93;;
64887;SDS011;51386;53.082;8.816;2023-12-28T08:43:04;9.10;;;2.73;;
64887;SDS011;51386;53.082;8.816;2023-12-28T08:45:33;10.50;;;2.90;;
64887;SDS011;51386;53.082;8.816;2023-12-28T08:48:03;6.50;;;2.83;;
64887;SDS011;51386;53.082;8.816;2023-12-28T08:50:32;6.13;;;2.60;;
64887;SDS011;51386;53.082;8.816;2023-12-28T08:53:01;7.83;;;2.40;;
64887;SDS011;51386;53.082;8.816;2023-12-28T08:55:29;9.40;;;2.70;;
64887;SDS011;51386;53.082;8.816;2023-12-28T08:57:58;9.50;;;2.93;;
64887;SDS011;51386;53.082;8.816;2023-12-28T09:00:27;6.73;;;2.70;;
64887;SDS011;51386;53.082;8.816;2023-12-28T09:02:56;9.17;;;2.70;;
64887;SDS011;51386;53.082;8.816;2023-12-28T09:05:24;6.13;;;2.17;;
64887;SDS011;51386;53.082;8.816;2023-12-28T09:07:52;6.03;;;2.30;;
64887;SDS011;51386;53.082;8.816;2023-12-28T09:10:21;7.80;;;2.43;;
64887;SDS011;51386;53.082;8.816;2023-12-28T09:12:50;6.30;;;2.20;;
64887;SDS011;51386;53.082;8.816;2023-12-28T09:15:18;6.80;;;2.23;;
64887;SDS011;51386;53.082;8.816;2023-12-28T09:17:47;7.90;;;2.83;;
64887;SDS011;51386;53.082;8.816;2023-12-28T09:20:15;12.43;;;2.93;;
64887;SDS011;51386;53.082;8.816;2023-12-28T09:22:45;4.87;;;2.07;;
64887;SDS011;51386;53.082;8.816;2023-12-28T09:25:15;7.93;;;2.90;;
64887;SDS011;51386;53.082;8.816;2023-12-28T09:27:43;10.27;;;3.00;;
64887;SDS011;51386;53.082;8.816;2023-12-28T09:30:12;7.43;;;2.80;;
64887;SDS011;51386;53.082;8.816;2023-12-28T09:32:41;11.40;;;2.90;;
64887;SDS011;51386;53.082;8.816;2023-12-28T09:35:09;12.40;;;2.73;;
64887;SDS011;51386;53.082;8.816;2023-12-28T09:37:38;11.63;;;3.23;;
64887;SDS011;51386;53.082;8.816;2023-12-28T09:40:06;11.40;;;3.03;;
64887;SDS011;51386;53.082;8.816;2023-12-28T09:42:45;8.30;;;2.83;;
64887;SDS011;51386;53.082;8.816;2023-12-28T09:45:34;9.47;;;2.90;;
64887;SDS011;51386;53.082;8.816;2023-12-28T09:48:03;5.43;;;2.53;;
64887;SDS011;51386;53.082;8.816;2023-12-28T09:50:34;10.27;;;2.60;;
64887;SDS011;51386;53.082;8.816;2023-12-28T09:53:03;7.83;;;2.93;;
64887;SDS011;51386;53.082;8.816;2023-12-28T09:55:31;8.43;;;2.83;;
64887;SDS011;51386;53.082;8.816;2023-12-28T09:58:00;6.83;;;2.67;;
64887;SDS011;51386;53.082;8.816;2023-12-28T10:00:33;9.20;;;3.07;;
64887;SDS011;51386;53.082;8.816;2023-12-28T10:03:02;9.53;;;2.77;;
64887;SDS011;51386;53.082;8.816;2023-12-28T10:05:30;16.90;;;3.37;;
64887;SDS011;51386;53.082;8.816;2023-12-28T10:07:59;9.07;;;2.90;;
64887;SDS011;51386;53.082;8.816;2023-12-28T10:10:28;7.47;;;2.80;;
64887;SDS011;51386;53.082;8.816;2023-12-28T10:12:57;6.80;;;2.43;;
64887;SDS011;51386;53.082;8.816;2023-12-28T10:15:26;11.20;;;3.43;;
64887;SDS011;51386;53.082;8.816;2023-12-28T10:17:55;12.60;;;3.30;;
64887;SDS011;51386;53.082;8.816;2023-12-28T10:20:26;10.13;;;2.77;;
64887;SDS011;51386;53.082;8.816;2023-12-28T10:22:55;8.07;;;3.00;;
64887;SDS011;51386;53.082;8.816;2023-12-28T10:25:26;13.17;;;3.07;;
64887;SDS011;51386;53.082;8.816;2023-12-28T10:28:03;11.47;;;2.83;;
64887;SDS011;51386;53.082;8.816;2023-12-28T10:30:35;11.47;;;3.33;;
64887;SDS011;51386;53.082;8.816;2023-12-28T10:33:04;8.93;;;3.10;;
64887;SDS011;51386;53.082;8.816;2023-12-28T10:35:34;9.87;;;3.13;;
64887;SDS011;51386;53.082;8.816;2023-12-28T10:38:03;9.30;;;3.10;;
64887;SDS011;51386;53.082;8.816;2023-12-28T10:40:35;12.00;;;3.90;;
64887;SDS011;51386;53.082;8.816;2023-12-28T10:43:06;13.40;;;3.50;;
64887;SDS011;51386;53.082;8.816;2023-12-28T10:45:39;12.97;;;3.20;;
64887;SDS011;51386;53.082;8.816;2023-12-28T10:48:11;10.73;;;2.93;;
64887;SDS011;51386;53.082;8.816;2023-12-28T10:50:50;11.57;;;3.07;;
64887;SDS011;51386;53.082;8.816;2023-12-28T10:53:30;8.27;;;2.60;;
64887;SDS011;51386;53.082;8.816;2023-12-28T10:56:20;14.90;;;3.57;;
64887;SDS011;51386;53.082;8.816;2023-12-28T11:02:41;8.50;;;3.10;;
64887;SDS011;51386;53.082;8.816;2023-12-28T11:05:13;12.60;;;3.93;;
64887;SDS011;51386;53.082;8.816;2023-12-28T11:07:45;11.53;;;3.73;;
64887;SDS011;51386;53.082;8.816;2023-12-28T11:10:15;12.17;;;3.80;;
64887;SDS011;51386;53.082;8.816;2023-12-28T11:12:47;11.57;;;3.57;;
64887;SDS011;51386;53.082;8.816;2023-12-28T11:15:19;8.57;;;3.20;;
64887;SDS011;51386;53.082;8.816;2023-12-28T11:17:51;11.00;;;3.10;;
64887;SDS011;51386;53.082;8.816;2023-12-28T11:20:20;7.93;;;3.20;;
64887;SDS011;51386;53.082;8.816;2023-12-28T11:22:50;8.93;;;3.17;;
64887;SDS011;51386;53.082;8.816;2023-12-28T11:25:19;10.30;;;2.63;;
64887;SDS011;51386;53.082;8.816;2023-12-28T11:27:47;9.30;;;3.37;;
64887;SDS011;51386;53.082;8.816;2023-12-28T11:30:16;13.10;;;3.50;;
64887;SDS011;51386;53.082;8.816;2023-12-28T11:32:44;11.73;;;3.07;;
64887;SDS011;51386;53.082;8.816;2023-12-28T11:35:13;12.63;;;3.43;;
64887;SDS011;51386;53.082;8.816;2023-12-28T11:37:44;11.87;;;3.23;;
64887;SDS011;51386;53.082;8.816;2023-12-28T11:40:19;10.10;;;3.27;;
64887;SDS011;51386;53.082;8.816;2023-12-28T11:42:49;9.90;;;3.03;;
64887;SDS011;51386;53.082;8.816;2023-12-28T11:45:23;8.70;;;2.70;;
64887;SDS011;51386;53.082;8.816;2023-12-28T11:47:59;9.83;;;3.20;;
64887;SDS011;51386;53.082;8.816;2023-12-28T11:50:30;9.70;;;2.83;;
64887;SDS011;51386;53.082;8.816;2023-12-28T11:52:59;6.30;;;3.17;;
64887;SDS011;51386;53.082;8.816;2023-12-28T11:55:28;9.00;;;3.07;;
64887;SDS011;51386;53.082;8.816;2023-12-28T11:57:57;10.77;;;3.10;;
64887;SDS011;51386;53.082;8.816;2023-12-28T12:00:25;9.03;;;3.77;;
64887;SDS011;51386;53.082;8.816;2023-12-28T12:02:54;10.80;;;3.57;;
64887;SDS011;51386;53.082;8.816;2023-12-28T12:05:23;10.10;;;3.17;;
64887;SDS011;51386;53.082;8.816;2023-12-28T12:07:52;8.77;;;3.30;;
64887;SDS011;51386;53.082;8.816;2023-12-28T12:10:20;13.33;;;3.37;;
64887;SDS011;51386;53.082;8.816;2023-12-28T12:12:51;19.00;;;3.77;;
64887;SDS011;51386;53.082;8.816;2023-12-28T12:15:21;6.43;;;2.93;;
64887;SDS011;51386;53.082;8.816;2023-12-28T12:17:50;10.63;;;2.77;;
64887;SDS011;51386;53.082;8.816;2023-12-28T12:20:19;11.03;;;3.67;;
64887;SDS011;51386;53.082;8.816;2023-12-28T12:22:48;13.73;;;3.97;;
64887;SDS011;51386;53.082;8.816;2023-12-28T12:25:17;11.90;;;3.00;;
64887;SDS011;51386;53.082;8.816;2023-12-28T12:27:47;13.43;;;3.97;;
64887;SDS011;51386;53.082;8.816;2023-12-28T12:30:16;7.47;;;3.20;;
64887;SDS011;51386;53.082;8.816;2023-12-28T12:32:44;12.93;;;3.43;;
64887;SDS011;51386;53.082;8.816;2023-12-28T12:35:14;11.70;;;3.30;;
64887;SDS011;51386;53.082;8.816;2023-12-28T12:37:42;8.70;;;3.03;;
64887;SDS011;51386;53.082;8.816;2023-12-28T12:40:12;12.60;;;3.33;;
64887;SDS011;51386;53.082;8.816;2023-12-28T12:42:43;11.87;;;3.27;;
64887;SDS011;51386;53.082;8.816;2023-12-28T12:45:21;13.03;;;3.50;;
64887;SDS011;51386;53.082;8.816;2023-12-28T12:47:51;10.03;;;3.43;;
64887;SDS011;51386;53.082;8.816;2023-12-28T12:50:19;9.57;;;3.00;;
64887;SDS011;51386;53.082;8.816;2023-12-28T12:52:49;8.93;;;3.47;;
64887;SDS011;51386;53.082;8.816;2023-12-28T12:55:18;14.17;;;3.77;;
64887;SDS011;51386;53.082;8.816;2023-12-28T12:57:49;13.80;;;3.40;;
64887;SDS011;51386;53.082;8.816;2023-12-28T13:00:20;11.40;;;3.93;;
64887;SDS011;51386;53.082;8.816;2023-12-28T13:02:49;9.40;;;3.03;;
64887;SDS011;51386;53.082;8.816;2023-12-28T13:05:20;13.67;;;3.43;;
64887;SDS011;51386;53.082;8.816;2023-12-28T13:07:49;12.17;;;3.60;;
64887;SDS011;51386;53.082;8.816;2023-12-28T13:10:26;14.27;;;3.50;;
64887;SDS011;51386;53.082;8.816;2023-12-28T13:12:55;13.87;;;3.40;;
64887;SDS011;51386;53.082;8.816;2023-12-28T13:15:24;14.30;;;3.70;;
64887;SDS011;51386;53.082;8.816;2023-12-28T13:17:52;14.83;;;3.30;;
64887;SDS011;51386;53.082;8.816;2023-12-28T13:20:21;17.63;;;3.67;;
64887;SDS011;51386;53.082;8.816;2023-12-28T13:22:50;10.33;;;2.97;;
64887;SDS011;51386;53.082;8.816;2023-12-28T13:25:18;11.13;;;3.07;;
64887;SDS011;51386;53.082;8.816;2023-12-28T13:27:46;12.00;;;3.57;;
64887;SDS011;51386;53.082;8.816;2023-12-28T13:30:15;10.33;;;2.83;;
64887;SDS011;51386;53.082;8.816;2023-12-28T13:32:44;9.33;;;3.00;;
64887;SDS011;51386;53.082;8.816;2023-12-28T13:35:13;6.87;;;2.73;;
64887;SDS011;51386;53.082;8.816;2023-12-28T13:37:41;10.83;;;3.53;;
64887;SDS011;51386;53.082;8.816;2023-12-28T13:40:10;13.00;;;3.43;;
64887;SDS011;51386;53.082;8.816;2023-12-28T13:42:43;10.87;;;3.13;;
64887;SDS011;51386;53.082;8.816;2023-12-28T13:45:14;10.43;;;2.93;;
64887;SDS011;51386;53.082;8.816;2023-12-28T13:47:43;13.90;;;3.83;;
64887;SDS011;51386;53.082;8.816;2023-12-28T13:50:11;10.77;;;3.00;;
64887;SDS011;51386;53.082;8.816;2023-12-28T13:52:40;10.17;;;3.90;;
64887;SDS011;51386;53.082;8.816;2023-12-28T13:55:08;11.80;;;3.50;;
64887;SDS011;51386;53.082;8.816;2023-12-28T13:57:37;5.53;;;3.03;;
64887;SDS011;51386;53.082;8.816;2023-12-28T14:00:06;12.63;;;3.03;;
64887;SDS011;51386;53.082;8.816;2023-12-28T14:02:36;12.03;;;3.17;;
64887;SDS011;51386;53.082;8.816;2023-12-28T14:05:04;12.77;;;3.83;;
64887;SDS011;51386;53.082;8.816;2023-12-28T14:07:34;17.40;;;3.77;;
64887;SDS011;51386;53.082;8.816;2023-12-28T14:10:03;11.27;;;3.80;;
64887;SDS011;51386;53.082;8.816;2023-12-28T14:12:32;9.20;;;3.20;;
64887;SDS011;51386;53.082;8.816;2023-12-28T14:15:01;14.60;;;3.93;;
64887;SDS011;51386;53.082;8.816;2023-12-28T14:17:30;8.13;;;3.50;;
64887;SDS011;51386;53.082;8.816;2023-12-28T14:19:58;12.90;;;3.70;;
64887;SDS011;51386;53.082;8.816;2023-12-28T14:22:27;13.80;;;3.67;;
64887;SDS011;51386;53.082;8.816;2023-12-28T14:24:56;13.90;;;3.33;;
64887;SDS011;51386;53.082;8.816;2023-12-28T14:27:25;10.20;;;3.00;;
64887;SDS011;51386;53.082;8.816;2023-12-28T14:29:58;15.87;;;4.00;;
64887;SDS011;51386;53.082;8.816;2023-12-28T14:32:31;15.67;;;3.73;;
64887;SDS011;51386;53.082;8.816;2023-12-28T14:35:00;17.97;;;4.37;;
64887;SDS011;51386;53.082;8.816;2023-12-28T14:37:28;14.30;;;3.77;;
64887;SDS011;51386;53.082;8.816;2023-12-28T14:39:57;9.60;;;3.20;;
64887;SDS011;51386;53.082;8.816;2023-12-28T14:42:26;7.13;;;3.50;;
64887;SDS011;51386;53.082;8.816;2023-12-28T14:44:57;14.67;;;3.53;;
64887;SDS011;51386;53.082;8.816;2023-12-28T14:47:30;11.40;;;3.57;;
64887;SDS011;51386;53.082;8.816;2023-12-28T14:49:59;10.40;;;3.60;;
64887;SDS011;51386;53.082;8.816;2023-12-28T14:52:28;16.27;;;4.17;;
64887;SDS011;51386;53.082;8.816;2023-12-28T14:54:56;13.67;;;3.80;;
64887;SDS011;51386;53.082;8.816;2023-12-28T14:57:25;11.33;;;3.77;;
64887;SDS011;51386;53.082;8.816;2023-12-28T14:59:53;13.03;;;3.87;;
64887;SDS011;51386;53.082;8.816;2023-12-28T15:02:22;12.20;;;4.00;;